Time;durP1;ratioP1;P1;durP2;ratioP2;P2;SDS_P1;SDS_P2;PMS_P1;PMS_P2;Temp;Humidity;BMP_temperature;BMP_pressure;BME280_temperature;BME280_humidity;BME280_pressure;Samples;Min_cycle;Max_cycle;Signal;HPM_P1;HPM_P2
2022/12/23 00:00:06;;;;;;;15.30;12.83;;;4.60;99.90;;;;;;4986145;28;20496;-50
2022/12/23 00:02:33;;;;;;;16.17;12.60;;;4.70;99.90;;;;;;4992729;28;20488;-51
2022/12/23 00:05:00;;;;;;;18.10;12.97;;;4.80;99.90;;;;;;4984708;28;20461;-50
2022/12/23 00:07:27;;;;;;;14.40;12.30;;;4.80;99.90;;;;;;4990728;28;20493;-51
2022/12/23 00:09:54;;;;;;;14.23;11.60;;;4.90;99.90;;;;;;4989706;28;20563;-52
2022/12/23 00:15:05;;;;;;;16.30;12.27;;;4.90;99.90;;;;;;4991533;28;20452;-51
2022/12/23 00:17:32;;;;;;;13.93;11.63;;;5.00;99.90;;;;;;4989799;28;20465;-50
2022/12/23 00:20:00;;;;;;;12.53;11.23;;;5.00;99.90;;;;;;4992645;28;20492;-50
2022/12/23 00:25:08;;;;;;;13.67;11.40;;;5.20;99.90;;;;;;4986586;28;20445;-51
2022/12/23 00:27:35;;;;;;;13.07;10.57;;;5.30;99.90;;;;;;4992954;28;20488;-51
2022/12/23 00:30:01;;;;;;;12.33;11.03;;;5.30;99.90;;;;;;4992556;28;20575;-55
2022/12/23 00:32:28;;;;;;;15.87;12.03;;;5.30;99.90;;;;;;4989591;28;20934;-55
2022/12/23 00:34:54;;;;;;;15.07;11.93;;;5.30;99.90;;;;;;4991300;28;20557;-54
2022/12/23 00:37:22;;;;;;;12.13;10.80;;;5.30;99.90;;;;;;4991962;28;20559;-54
2022/12/23 00:45:17;;;;;;;11.93;10.33;;;5.40;99.90;;;;;;4992381;28;20452;-54
2022/12/23 00:50:26;;;;;;;12.33;10.43;;;5.30;99.90;;;;;;4942031;28;20995;-54
2022/12/23 00:52:54;;;;;;;10.67;9.57;;;5.20;99.90;;;;;;4986979;28;21052;-54
2022/12/23 00:55:21;;;;;;;11.17;9.87;;;5.30;99.90;;;;;;4988361;28;20527;-54
2022/12/23 00:57:47;;;;;;;12.27;10.80;;;5.20;99.90;;;;;;4993082;28;20541;-54
2022/12/23 01:00:14;;;;;;;12.80;10.67;;;5.20;99.90;;;;;;4989937;28;20564;-54
2022/12/23 01:05:38;;;;;;;11.20;9.30;;;5.20;99.90;;;;;;4991980;28;20988;-55
2022/12/23 01:08:07;;;;;;;15.17;11.73;;;5.10;99.90;;;;;;4990332;28;20488;-55
2022/12/23 01:10:34;;;;;;;11.73;10.43;;;5.00;99.90;;;;;;4986370;28;20568;-54
2022/12/23 01:13:01;;;;;;;14.30;10.10;;;5.00;99.90;;;;;;4993781;28;20583;-55
2022/12/23 01:15:27;;;;;;;10.00;9.00;;;4.90;99.90;;;;;;4988253;28;20504;-54
2022/12/23 01:17:54;;;;;;;10.13;9.13;;;4.90;99.90;;;;;;4985448;28;20489;-55
2022/12/23 01:20:21;;;;;;;12.60;9.87;;;4.90;99.90;;;;;;4986158;28;20562;-55
2022/12/23 01:22:47;;;;;;;14.63;10.57;;;4.90;99.90;;;;;;4988501;28;20481;-54
2022/12/23 01:25:16;;;;;;;9.73;8.80;;;4.90;99.90;;;;;;4982112;28;20897;-54
2022/12/23 01:27:43;;;;;;;13.27;10.40;;;4.90;99.90;;;;;;4991850;28;20567;-55
2022/12/23 01:30:10;;;;;;;13.30;9.40;;;4.90;99.90;;;;;;4976024;28;20932;-51
2022/12/23 01:32:36;;;;;;;10.93;9.23;;;4.80;99.90;;;;;;4990740;28;20526;-51
2022/12/23 01:35:03;;;;;;;10.00;9.00;;;4.80;99.90;;;;;;4990538;28;20492;-52
2022/12/23 01:37:30;;;;;;;12.70;9.97;;;4.80;99.90;;;;;;4985023;28;20488;-51
2022/12/23 01:39:56;;;;;;;11.70;10.40;;;4.80;99.90;;;;;;4988272;28;20923;-51
2022/12/23 01:45:23;;;;;;;10.37;9.23;;;4.90;99.90;;;;;;4991219;28;20464;-51
2022/12/23 01:48:00;;;;;;;9.83;8.80;;;4.90;99.90;;;;;;4991515;28;20464;-51
2022/12/23 01:50:37;;;;;;;9.77;8.80;;;5.00;99.90;;;;;;4992391;28;20488;-51
2022/12/23 01:53:11;;;;;;;10.17;9.17;;;5.10;99.90;;;;;;4991724;28;20477;-51
2022/12/23 01:55:44;;;;;;;9.80;8.80;;;5.20;99.90;;;;;;4979878;28;20463;-51
2022/12/23 01:58:20;;;;;;;10.23;8.70;;;5.30;99.90;;;;;;4986198;28;20464;-51
2022/12/23 02:03:44;;;;;;;9.33;7.77;;;5.40;99.90;;;;;;4976090;28;20479;-50
2022/12/23 02:09:22;;;;;;;8.50;7.57;;;5.50;99.90;;;;;;4992553;28;20790;-51
2022/12/23 02:12:17;;;;;;;10.27;8.60;;;5.50;99.90;;;;;;4987232;28;20464;-51
2022/12/23 02:18:09;;;;;;;9.80;8.90;;;5.60;99.90;;;;;;4985537;28;20551;-50
2022/12/23 02:21:04;;;;;;;8.87;7.70;;;5.60;99.90;;;;;;4988010;28;20484;-51
2022/12/23 02:24:06;;;;;;;9.23;8.33;;;5.60;99.90;;;;;;4992962;28;20469;-51
2022/12/23 02:27:14;;;;;;;10.37;8.83;;;5.60;99.90;;;;;;4980565;28;20460;-50
2022/12/23 02:30:25;;;;;;;9.87;8.87;;;5.70;99.90;;;;;;4984686;28;21041;-52
2022/12/23 02:33:22;;;;;;;11.77;9.83;;;5.70;99.90;;;;;;4987945;28;20495;-51
2022/12/23 02:35:59;;;;;;;11.10;8.70;;;5.70;99.90;;;;;;4989633;28;20459;-51
2022/12/23 02:38:34;;;;;;;10.20;8.63;;;5.70;99.90;;;;;;4988304;28;20863;-51
2022/12/23 02:41:16;;;;;;;11.50;10.07;;;5.70;99.90;;;;;;4989494;28;20468;-51
2022/12/23 02:43:46;;;;;;;12.60;10.20;;;5.70;99.90;;;;;;4983518;28;20543;-51
2022/12/23 02:46:20;;;;;;;10.53;9.00;;;5.60;99.90;;;;;;4988960;28;20559;-52
2022/12/23 02:48:54;;;;;;;11.70;9.90;;;5.70;99.90;;;;;;4988664;28;20539;-51
2022/12/23 02:51:26;;;;;;;13.07;10.00;;;5.70;99.90;;;;;;4984982;28;20551;-51
2022/12/23 02:53:59;;;;;;;12.87;9.80;;;5.80;99.90;;;;;;4985221;28;20548;-50
2022/12/23 02:56:33;;;;;;;13.30;10.90;;;5.80;99.90;;;;;;4988125;28;20464;-51
2022/12/23 02:59:11;;;;;;;15.77;11.50;;;5.80;99.90;;;;;;4989972;28;20471;-52
2022/12/23 03:01:45;;;;;;;11.40;9.20;;;5.80;99.90;;;;;;4982935;28;20883;-51
2022/12/23 03:04:22;;;;;;;11.83;10.63;;;5.80;99.90;;;;;;4987748;28;20467;-51
2022/12/23 03:06:54;;;;;;;13.83;12.27;;;5.80;99.90;;;;;;4989676;28;20460;-51
2022/12/23 03:09:33;;;;;;;16.13;11.67;;;5.80;99.90;;;;;;4991127;28;20492;-51
2022/12/23 03:12:12;;;;;;;20.00;10.43;;;5.80;99.90;;;;;;4989540;28;20470;-51
2022/12/23 03:15:00;;;;;;;14.80;11.83;;;5.80;99.90;;;;;;4988863;28;20816;-51
2022/12/23 03:17:52;;;;;;;14.00;12.13;;;5.70;99.90;;;;;;4990580;28;20902;-51
2022/12/23 03:20:29;;;;;;;12.30;10.90;;;5.80;99.90;;;;;;4993829;28;20903;-51
2022/12/23 03:23:06;;;;;;;16.13;11.80;;;5.80;99.90;;;;;;4992484;28;20456;-51
2022/12/23 03:25:37;;;;;;;14.87;10.90;;;5.80;99.90;;;;;;4993689;28;20993;-51
2022/12/23 03:28:11;;;;;;;13.53;12.13;;;5.80;99.90;;;;;;4988570;28;20932;-51
2022/12/23 03:30:42;;;;;;;17.00;12.07;;;5.90;99.90;;;;;;4991441;28;20480;-51
2022/12/23 03:33:15;;;;;;;19.23;12.67;;;5.80;99.90;;;;;;4989133;28;20579;-51
2022/12/23 03:35:48;;;;;;;17.60;12.50;;;5.90;99.90;;;;;;4991049;28;20555;-51
2022/12/23 03:38:18;;;;;;;14.00;12.17;;;5.80;99.90;;;;;;4997178;28;20499;-51
2022/12/23 03:40:49;;;;;;;15.47;12.70;;;5.90;99.90;;;;;;4988675;28;20579;-51
2022/12/23 03:43:20;;;;;;;18.33;12.70;;;5.90;99.90;;;;;;4990842;28;20485;-51
2022/12/23 03:45:52;;;;;;;11.83;10.60;;;5.90;99.90;;;;;;4994637;28;20484;-51
2022/12/23 03:48:22;;;;;;;13.17;11.83;;;5.80;99.90;;;;;;4995093;28;20457;-51
2022/12/23 03:50:55;;;;;;;13.30;11.03;;;5.90;99.90;;;;;;4991854;28;20571;-51
2022/12/23 03:53:27;;;;;;;13.27;11.30;;;5.80;99.90;;;;;;4991672;28;20618;-51
2022/12/23 03:55:59;;;;;;;11.60;10.40;;;5.80;99.90;;;;;;4991980;28;20499;-51
2022/12/23 03:58:35;;;;;;;11.83;10.00;;;5.70;99.90;;;;;;4992988;28;21033;-51
2022/12/23 04:01:09;;;;;;;10.43;9.33;;;5.70;99.90;;;;;;4993429;28;20583;-51
2022/12/23 04:03:41;;;;;;;10.10;9.10;;;5.70;99.90;;;;;;4989483;28;20490;-51
2022/12/23 04:06:12;;;;;;;12.90;10.60;;;5.70;99.90;;;;;;4994327;28;20496;-51
2022/12/23 04:08:41;;;;;;;10.60;9.03;;;5.70;99.90;;;;;;4994893;28;20520;-51
2022/12/23 04:11:08;;;;;;;10.90;9.20;;;5.70;99.90;;;;;;4993214;28;20575;-53
2022/12/23 04:13:35;;;;;;;12.43;10.33;;;5.70;99.90;;;;;;4988585;28;20587;-53
2022/12/23 04:16:02;;;;;;;10.93;9.83;;;5.70;99.90;;;;;;4991609;28;20507;-55
2022/12/23 04:18:29;;;;;;;10.37;8.47;;;5.60;99.90;;;;;;4994258;28;21013;-54
2022/12/23 04:20:55;;;;;;;14.13;9.63;;;5.60;99.90;;;;;;4992279;28;20547;-55
2022/12/23 04:23:23;;;;;;;11.23;9.73;;;5.60;99.90;;;;;;4993129;28;20540;-55
2022/12/23 04:25:50;;;;;;;10.73;9.53;;;5.60;99.90;;;;;;4993218;28;20503;-54
2022/12/23 04:28:17;;;;;;;13.60;11.03;;;5.60;99.90;;;;;;4993287;28;20540;-54
2022/12/23 04:30:44;;;;;;;13.60;10.27;;;5.60;99.90;;;;;;4992399;28;20485;-55
2022/12/23 04:33:11;;;;;;;12.50;9.40;;;5.60;99.90;;;;;;4991804;28;20512;-54
2022/12/23 04:35:38;;;;;;;12.70;10.53;;;5.60;99.90;;;;;;4986386;28;20564;-55
2022/12/23 04:38:05;;;;;;;14.43;9.10;;;5.60;99.90;;;;;;4983256;28;20555;-55
2022/12/23 04:40:33;;;;;;;13.50;10.80;;;5.60;99.90;;;;;;4992796;28;21013;-52
2022/12/23 04:42:59;;;;;;;14.97;10.23;;;5.60;99.90;;;;;;4985648;28;20966;-54
2022/12/23 04:45:26;;;;;;;12.77;10.87;;;5.60;99.90;;;;;;4993347;28;20547;-53
2022/12/23 04:47:53;;;;;;;11.93;10.60;;;5.60;99.90;;;;;;4988209;28;20555;-53
2022/12/23 04:50:19;;;;;;;11.53;10.27;;;5.70;99.90;;;;;;4986195;28;20653;-53
2022/12/23 04:52:46;;;;;;;13.33;11.20;;;5.60;99.90;;;;;;4995989;28;21000;-53
2022/12/23 04:55:13;;;;;;;12.70;10.80;;;5.60;99.90;;;;;;4996612;28;20488;-53
2022/12/23 04:57:41;;;;;;;14.73;11.53;;;5.70;99.90;;;;;;4991972;28;20978;-54
2022/12/23 05:00:09;;;;;;;17.17;11.77;;;5.70;99.90;;;;;;4992027;28;20480;-51
2022/12/23 05:02:35;;;;;;;13.37;11.10;;;5.70;99.90;;;;;;4985632;28;20465;-53
2022/12/23 05:05:02;;;;;;;12.43;10.90;;;5.70;99.90;;;;;;4992060;28;20536;-54
2022/12/23 05:07:28;;;;;;;11.40;9.93;;;5.80;99.90;;;;;;4993054;28;21005;-53
2022/12/23 05:10:00;;;;;;;11.47;10.30;;;5.80;99.90;;;;;;4993462;28;20559;-52
2022/12/23 05:12:27;;;;;;;10.50;9.03;;;5.80;99.90;;;;;;4987011;28;20978;-53
2022/12/23 05:14:55;;;;;;;13.00;11.03;;;5.80;99.90;;;;;;4993971;28;20565;-53
2022/12/23 05:17:21;;;;;;;13.20;11.80;;;5.80;99.90;;;;;;4992429;28;20476;-52
2022/12/23 05:19:48;;;;;;;9.13;8.23;;;5.80;99.90;;;;;;4993165;28;20564;-53
2022/12/23 05:22:14;;;;;;;8.73;7.93;;;5.80;99.90;;;;;;4988323;28;20555;-52
2022/12/23 05:24:41;;;;;;;13.57;11.13;;;5.80;99.90;;;;;;4991697;28;20493;-53
2022/12/23 05:27:07;;;;;;;12.60;11.30;;;5.80;99.90;;;;;;4992517;28;20479;-51
2022/12/23 05:29:34;;;;;;;14.43;10.30;;;5.80;99.90;;;;;;4986403;28;20983;-51
2022/12/23 05:32:02;;;;;;;9.23;8.30;;;5.80;99.90;;;;;;4991406;28;20460;-51
2022/12/23 05:34:28;;;;;;;8.77;8.00;;;5.80;99.90;;;;;;4990326;28;20583;-51
2022/12/23 05:36:55;;;;;;;8.07;7.37;;;5.80;99.90;;;;;;4989345;28;20950;-53
2022/12/23 05:39:21;;;;;;;8.17;6.97;;;5.80;99.90;;;;;;4989308;28;20468;-53
2022/12/23 05:41:48;;;;;;;9.20;8.30;;;5.80;99.90;;;;;;4991557;28;20488;-50
2022/12/23 05:44:15;;;;;;;8.50;7.60;;;5.80;99.90;;;;;;4992129;28;20475;-50
2022/12/23 05:46:41;;;;;;;11.90;10.50;;;5.80;99.90;;;;;;4991065;28;20495;-51
2022/12/23 05:49:11;;;;;;;9.97;9.00;;;5.80;99.90;;;;;;4986027;28;21176;-51
2022/12/23 05:51:38;;;;;;;10.13;9.10;;;5.80;99.90;;;;;;4975118;28;20492;-54
2022/12/23 05:54:05;;;;;;;9.93;8.90;;;5.80;99.90;;;;;;4982725;28;20947;-51
2022/12/23 05:56:31;;;;;;;8.00;7.30;;;5.80;99.90;;;;;;4989310;28;20491;-51
2022/12/23 05:58:58;;;;;;;8.67;7.87;;;5.80;99.90;;;;;;4992501;28;21196;-51
2022/12/23 06:01:24;;;;;;;8.70;7.80;;;5.80;99.90;;;;;;4990050;28;20543;-51
2022/12/23 06:03:51;;;;;;;11.17;10.00;;;5.80;99.90;;;;;;4991812;28;20994;-52
2022/12/23 06:06:19;;;;;;;9.80;7.50;;;5.80;99.90;;;;;;4992251;28;20547;-53
2022/12/23 06:08:45;;;;;;;17.17;9.67;;;5.80;99.90;;;;;;4989351;28;20571;-53
2022/12/23 06:11:12;;;;;;;9.73;7.40;;;5.70;99.90;;;;;;4988475;28;20566;-51
2022/12/23 06:13:39;;;;;;;7.03;6.33;;;5.70;99.90;;;;;;4995188;28;20480;-52
2022/12/23 06:16:06;;;;;;;8.93;8.13;;;5.80;99.90;;;;;;4993166;28;20500;-55
2022/12/23 06:18:32;;;;;;;6.97;6.27;;;5.80;99.90;;;;;;4988629;28;20489;-53
2022/12/23 06:20:59;;;;;;;8.80;7.90;;;5.80;99.90;;;;;;4987388;28;20583;-52
2022/12/23 06:23:27;;;;;;;8.23;7.53;;;5.80;99.90;;;;;;4983107;28;20908;-52
2022/12/23 06:25:58;;;;;;;7.50;6.80;;;5.80;99.90;;;;;;4983374;28;21006;-52
2022/12/23 06:28:25;;;;;;;8.00;7.20;;;5.80;99.90;;;;;;4988942;28;20875;-54
2022/12/23 06:30:52;;;;;;;6.50;5.60;;;5.90;99.90;;;;;;4987402;28;20568;-52
2022/12/23 06:33:19;;;;;;;7.30;6.67;;;5.80;99.90;;;;;;4984466;28;20499;-55
2022/12/23 06:35:45;;;;;;;7.70;7.00;;;5.80;99.90;;;;;;4986080;28;20499;-54
2022/12/23 06:38:12;;;;;;;8.40;7.60;;;5.80;99.90;;;;;;4992777;28;20544;-55
2022/12/23 06:40:40;;;;;;;8.30;7.50;;;5.80;99.90;;;;;;4989086;28;20515;-51
2022/12/23 06:43:07;;;;;;;8.13;7.27;;;5.80;99.90;;;;;;4989630;28;20507;-51
2022/12/23 06:45:33;;;;;;;10.33;8.20;;;5.80;99.90;;;;;;4991110;28;20540;-51
2022/12/23 06:48:00;;;;;;;9.13;8.20;;;5.90;99.90;;;;;;4990667;28;20492;-53
2022/12/23 06:50:26;;;;;;;12.17;9.07;;;5.90;99.90;;;;;;4988077;28;20563;-52
2022/12/23 06:52:53;;;;;;;8.70;7.80;;;5.90;99.90;;;;;;4985304;28;20888;-52
2022/12/23 06:55:19;;;;;;;5.60;5.13;;;5.90;99.90;;;;;;4993091;28;20571;-53
2022/12/23 06:57:47;;;;;;;5.83;5.40;;;5.90;99.90;;;;;;4994307;28;20555;-54
2022/12/23 07:00:15;;;;;;;10.53;7.90;;;5.80;99.90;;;;;;4995140;28;20504;-50
2022/12/23 07:02:41;;;;;;;8.87;8.07;;;5.80;99.90;;;;;;4983976;28;20540;-52
2022/12/23 07:05:09;;;;;;;11.47;8.93;;;5.80;99.90;;;;;;4992717;28;20543;-53
2022/12/23 07:07:35;;;;;;;7.80;7.10;;;5.90;99.90;;;;;;4988688;28;20626;-51
2022/12/23 07:10:02;;;;;;;7.50;6.80;;;5.90;99.90;;;;;;4986974;28;20600;-50
2022/12/23 07:12:29;;;;;;;7.17;5.73;;;5.80;99.90;;;;;;4984203;28;20495;-54
2022/12/23 07:14:56;;;;;;;6.33;5.57;;;5.80;99.90;;;;;;4986232;28;20538;-54
2022/12/23 07:17:23;;;;;;;6.57;5.97;;;5.80;99.90;;;;;;4985284;28;20507;-54
2022/12/23 07:19:49;;;;;;;6.17;5.53;;;5.80;99.90;;;;;;4986039;28;20571;-54
2022/12/23 07:22:16;;;;;;;5.43;4.93;;;5.80;99.90;;;;;;4982740;28;20551;-54
2022/12/23 07:24:42;;;;;;;4.00;3.70;;;5.80;99.90;;;;;;4985679;28;20511;-54
2022/12/23 07:27:09;;;;;;;3.63;3.43;;;5.70;99.90;;;;;;4984699;28;20489;-54
2022/12/23 07:29:36;;;;;;;4.90;4.40;;;5.70;99.90;;;;;;4985378;28;20464;-54
2022/12/23 07:32:04;;;;;;;10.63;8.83;;;5.70;99.90;;;;;;4986483;28;20587;-54
2022/12/23 07:34:31;;;;;;;15.13;6.20;;;5.80;99.90;;;;;;4985698;28;20670;-54
2022/12/23 07:36:57;;;;;;;14.33;6.43;;;5.80;99.90;;;;;;4986817;28;20551;-51
2022/12/23 07:39:24;;;;;;;5.00;4.60;;;5.80;99.90;;;;;;4984631;28;20469;-52
2022/12/23 07:41:51;;;;;;;5.93;5.33;;;5.80;99.90;;;;;;4989528;28;21009;-51
2022/12/23 07:44:17;;;;;;;17.83;6.53;;;5.80;99.90;;;;;;4991940;28;20495;-50
2022/12/23 07:46:44;;;;;;;12.00;9.23;;;5.80;99.90;;;;;;4989620;28;20552;-54
2022/12/23 07:49:12;;;;;;;10.23;8.83;;;5.80;99.90;;;;;;4987330;28;20468;-55
2022/12/23 07:51:42;;;;;;;20.07;7.90;;;5.80;99.90;;;;;;4982973;28;20555;-55
2022/12/23 07:54:15;;;;;;;11.77;8.07;;;5.90;99.90;;;;;;4984781;28;20477;-53
2022/12/23 07:56:43;;;;;;;10.50;8.80;;;5.90;99.90;;;;;;4985188;28;20457;-54
2022/12/23 07:59:12;;;;;;;9.60;8.40;;;5.80;99.90;;;;;;4987128;28;20606;-54
2022/12/23 08:01:38;;;;;;;7.43;6.73;;;5.80;99.90;;;;;;4983409;28;20476;-54
2022/12/23 08:04:05;;;;;;;9.93;8.50;;;5.80;99.90;;;;;;4988092;28;20496;-53
2022/12/23 08:06:35;;;;;;;17.90;10.00;;;5.90;99.90;;;;;;4985629;28;20552;-54
2022/12/23 08:09:02;;;;;;;12.47;10.37;;;5.90;99.90;;;;;;4992069;28;20555;-54
2022/12/23 08:11:28;;;;;;;11.80;9.80;;;5.90;99.90;;;;;;4987588;28;20485;-53
2022/12/23 08:13:55;;;;;;;18.07;13.70;;;5.90;99.90;;;;;;4990682;28;20548;-53
2022/12/23 08:16:21;;;;;;;20.53;14.60;;;6.00;99.90;;;;;;4984473;28;20489;-53
2022/12/23 08:18:48;;;;;;;20.57;15.87;;;6.10;99.90;;;;;;4985705;28;20945;-57
2022/12/23 08:21:17;;;;;;;24.40;17.23;;;6.10;99.90;;;;;;4985213;28;20577;-58
2022/12/23 08:23:47;;;;;;;16.93;12.93;;;6.10;99.90;;;;;;4990903;28;20465;-57
2022/12/23 08:26:15;;;;;;;16.63;12.57;;;6.20;99.90;;;;;;4987477;28;20470;-56
2022/12/23 08:28:43;;;;;;;15.47;11.10;;;6.20;99.90;;;;;;4986354;28;20551;-57
2022/12/23 08:31:12;;;;;;;22.80;14.37;;;6.30;99.90;;;;;;4987526;28;20489;-58
2022/12/23 08:33:40;;;;;;;21.33;15.40;;;6.30;99.90;;;;;;4992972;28;20495;-57
2022/12/23 08:36:09;;;;;;;21.90;15.43;;;6.30;99.90;;;;;;4987949;28;20484;-56
2022/12/23 08:38:36;;;;;;;16.90;13.50;;;6.40;99.90;;;;;;4979108;28;20496;-57
2022/12/23 08:41:09;;;;;;;17.10;12.80;;;6.40;99.90;;;;;;4992314;28;21053;-56
2022/12/23 08:43:35;;;;;;;24.47;16.03;;;6.40;99.90;;;;;;4988025;28;20493;-57
2022/12/23 08:46:02;;;;;;;26.83;14.50;;;6.40;99.90;;;;;;4989375;28;20938;-57
2022/12/23 08:48:28;;;;;;;27.10;15.13;;;6.40;99.90;;;;;;4993539;28;20539;-57
2022/12/23 08:50:55;;;;;;;28.57;14.63;;;6.50;99.90;;;;;;4988114;28;20588;-57
2022/12/23 08:53:21;;;;;;;50.17;18.23;;;6.50;99.90;;;;;;4985136;28;20556;-57
2022/12/23 08:55:48;;;;;;;23.03;14.63;;;6.50;99.90;;;;;;4990825;28;20582;-57
2022/12/23 08:58:16;;;;;;;43.53;13.67;;;6.50;99.90;;;;;;4985487;28;20560;-53
2022/12/23 09:00:43;;;;;;;31.10;14.40;;;6.40;99.90;;;;;;4976561;28;20575;-51
2022/12/23 09:03:09;;;;;;;43.73;12.70;;;6.50;99.90;;;;;;4975604;28;20567;-51
2022/12/23 09:05:39;;;;;;;29.10;13.93;;;6.50;99.90;;;;;;4979449;28;20899;-51
2022/12/23 09:08:06;;;;;;;40.03;12.37;;;6.50;99.90;;;;;;4981053;28;20550;-51
2022/12/23 09:10:33;;;;;;;32.80;12.23;;;6.60;99.90;;;;;;4980936;28;20518;-50
2022/12/23 09:12:59;;;;;;;58.70;11.73;;;6.60;99.90;;;;;;4981868;28;20460;-52
2022/12/23 09:15:27;;;;;;;25.93;12.73;;;6.50;99.90;;;;;;4984075;28;20579;-51
2022/12/23 09:17:54;;;;;;;67.90;13.77;;;6.60;99.90;;;;;;4989489;28;20475;-53
2022/12/23 09:20:20;;;;;;;57.93;11.87;;;6.50;99.90;;;;;;4985044;28;20567;-53
2022/12/23 09:22:47;;;;;;;45.23;14.70;;;6.60;99.90;;;;;;4987836;28;20564;-53
2022/12/23 09:25:14;;;;;;;42.93;11.40;;;6.60;99.90;;;;;;4978087;28;20551;-51
2022/12/23 09:27:41;;;;;;;29.00;10.57;;;6.60;99.90;;;;;;4977321;28;20460;-52
2022/12/23 09:30:09;;;;;;;41.87;11.37;;;6.60;99.90;;;;;;4974364;28;20531;-53
2022/12/23 09:32:37;;;;;;;35.47;11.80;;;6.50;99.90;;;;;;4977440;28;20545;-53
2022/12/23 09:35:04;;;;;;;37.47;10.40;;;6.60;99.90;;;;;;4973755;28;21094;-55
2022/12/23 09:37:30;;;;;;;31.57;11.03;;;6.60;99.90;;;;;;4980700;28;20463;-52
2022/12/23 09:39:57;;;;;;;36.33;12.33;;;6.50;99.90;;;;;;4976266;28;20584;-53
2022/12/23 09:42:36;;;;;;;22.53;10.70;;;6.60;99.90;;;;;;4980479;28;20478;-52
2022/12/23 09:45:14;;;;;;;22.07;11.90;;;6.50;99.90;;;;;;4973785;28;20928;-52
2022/12/23 09:47:44;;;;;;;18.40;11.77;;;6.50;99.90;;;;;;4976919;28;20468;-52
2022/12/23 09:50:18;;;;;;;19.30;12.13;;;6.50;99.90;;;;;;4977422;28;20571;-52
2022/12/23 09:52:51;;;;;;;18.80;12.67;;;6.60;99.90;;;;;;4975406;28;20471;-53
2022/12/23 09:55:19;;;;;;;18.27;12.70;;;6.60;99.90;;;;;;4976990;28;20477;-53
2022/12/23 09:57:55;;;;;;;22.63;12.87;;;6.70;99.90;;;;;;4976847;28;20580;-52
2022/12/23 10:00:23;;;;;;;17.20;12.57;;;6.70;99.90;;;;;;4972394;28;20480;-52
2022/12/23 10:03:07;;;;;;;14.63;11.40;;;6.70;99.90;;;;;;4987425;28;20579;-53
2022/12/23 10:05:45;;;;;;;15.40;11.80;;;6.70;99.90;;;;;;4987071;28;20467;-53
2022/12/23 10:08:18;;;;;;;15.90;11.90;;;6.70;99.90;;;;;;4986553;28;20476;-52
2022/12/23 10:10:48;;;;;;;18.17;12.00;;;6.70;99.90;;;;;;4974879;28;21061;-53
2022/12/23 10:13:25;;;;;;;18.50;12.80;;;6.70;99.90;;;;;;4973877;28;20551;-52
2022/12/23 10:15:54;;;;;;;16.17;12.00;;;6.70;99.90;;;;;;4968596;28;20487;-52
2022/12/23 10:18:27;;;;;;;17.70;12.50;;;6.70;99.90;;;;;;4975193;28;20456;-52
2022/12/23 10:20:58;;;;;;;16.83;11.60;;;6.70;99.90;;;;;;4977584;28;20576;-53
2022/12/23 10:23:30;;;;;;;23.70;13.67;;;6.70;99.90;;;;;;4977403;28;20488;-53
2022/12/23 10:25:57;;;;;;;17.20;12.37;;;6.70;99.90;;;;;;4986838;28;20500;-53
2022/12/23 10:28:24;;;;;;;20.20;13.00;;;6.70;99.90;;;;;;4984505;28;20501;-53
2022/12/23 10:31:01;;;;;;;18.47;12.50;;;6.70;99.90;;;;;;4984774;28;20573;-52
2022/12/23 10:33:37;;;;;;;19.30;12.50;;;6.70;99.90;;;;;;4987197;28;20550;-53
2022/12/23 10:36:10;;;;;;;21.53;11.50;;;6.80;99.90;;;;;;4992173;28;20551;-53
2022/12/23 10:38:47;;;;;;;19.60;11.73;;;6.80;99.90;;;;;;4973638;28;20563;-53
2022/12/23 10:41:22;;;;;;;15.47;11.37;;;6.90;99.90;;;;;;4982708;28;20682;-54
2022/12/23 10:44:12;;;;;;;24.30;14.00;;;6.90;99.90;;;;;;4979890;28;20571;-53
2022/12/23 10:46:49;;;;;;;21.13;12.60;;;6.90;99.90;;;;;;4978371;28;21045;-53
2022/12/23 10:49:28;;;;;;;21.83;12.70;;;6.90;99.90;;;;;;4983025;28;20458;-53
2022/12/23 10:51:57;;;;;;;16.00;11.47;;;6.90;99.90;;;;;;4985666;28;20522;-53
2022/12/23 10:54:27;;;;;;;20.13;11.83;;;6.90;99.90;;;;;;4986491;28;20886;-53
2022/12/23 10:56:54;;;;;;;18.90;12.00;;;6.80;99.90;;;;;;4990182;28;20484;-54
2022/12/23 10:59:25;;;;;;;24.43;11.50;;;6.80;99.90;;;;;;4985576;28;20496;-53
2022/12/23 11:01:56;;;;;;;17.23;11.03;;;6.80;99.90;;;;;;4980627;28;20488;-53
2022/12/23 11:04:32;;;;;;;15.33;10.87;;;6.70;99.90;;;;;;4978890;28;20555;-53
2022/12/23 11:06:59;;;;;;;16.53;9.90;;;6.80;99.90;;;;;;4979640;28;20547;-53
2022/12/23 11:09:34;;;;;;;19.83;12.27;;;6.80;99.90;;;;;;4977857;28;20579;-52
2022/12/23 11:12:04;;;;;;;16.53;11.33;;;6.80;99.90;;;;;;4981343;28;20488;-53
2022/12/23 11:14:38;;;;;;;14.93;10.10;;;6.80;99.90;;;;;;4979975;28;20492;-53
2022/12/23 11:17:06;;;;;;;15.70;11.07;;;6.80;99.90;;;;;;4979351;28;20583;-53
2022/12/23 11:19:34;;;;;;;15.93;11.43;;;6.80;99.90;;;;;;4980499;28;20550;-52
2022/12/23 11:22:01;;;;;;;13.97;11.00;;;6.80;99.90;;;;;;4977036;28;20483;-52
2022/12/23 11:24:31;;;;;;;14.47;10.20;;;6.80;99.90;;;;;;4974160;28;20460;-53
2022/12/23 11:27:04;;;;;;;17.20;11.43;;;6.80;99.90;;;;;;4975362;28;20951;-52
2022/12/23 11:29:35;;;;;;;15.70;10.17;;;6.80;99.90;;;;;;4985888;28;20556;-53
2022/12/23 11:32:04;;;;;;;14.23;10.30;;;6.80;99.90;;;;;;4981623;28;20588;-52
2022/12/23 11:34:37;;;;;;;12.60;9.50;;;6.90;99.90;;;;;;4976394;28;20469;-52
2022/12/23 11:37:04;;;;;;;13.70;10.60;;;6.90;99.90;;;;;;4972241;28;20480;-54
2022/12/23 11:39:32;;;;;;;15.50;11.47;;;7.00;99.90;;;;;;4976487;28;20563;-52
2022/12/23 11:42:05;;;;;;;20.27;13.47;;;7.00;99.90;;;;;;4976515;28;20545;-52
2022/12/23 11:44:34;;;;;;;14.23;10.37;;;7.00;99.90;;;;;;4972620;28;21045;-52
2022/12/23 11:47:19;;;;;;;16.90;12.00;;;7.00;99.90;;;;;;4974778;28;21067;-53
2022/12/23 11:49:49;;;;;;;16.40;11.80;;;7.00;99.90;;;;;;4971358;28;20560;-53
2022/12/23 11:52:19;;;;;;;17.13;11.27;;;7.00;99.90;;;;;;4986488;28;20607;-52
2022/12/23 11:54:50;;;;;;;17.00;12.50;;;7.10;99.90;;;;;;4980037;28;20472;-52
2022/12/23 11:57:21;;;;;;;13.43;10.40;;;7.10;99.90;;;;;;4981366;28;20481;-52
2022/12/23 11:59:49;;;;;;;15.07;11.27;;;7.10;99.90;;;;;;4979572;28;21161;-53
2022/12/23 12:02:22;;;;;;;16.33;11.70;;;7.10;99.90;;;;;;4973831;28;20547;-56
2022/12/23 12:04:59;;;;;;;18.00;11.70;;;7.10;99.90;;;;;;4975945;28;21611;-56
2022/12/23 12:07:26;;;;;;;16.10;12.20;;;7.10;99.90;;;;;;4974175;28;21050;-56
2022/12/23 12:09:57;;;;;;;15.47;12.13;;;7.10;99.90;;;;;;4971990;28;20583;-56
2022/12/23 12:12:23;;;;;;;19.37;14.40;;;7.10;99.40;;;;;;4978232;28;20568;-57
2022/12/23 12:14:53;;;;;;;18.97;13.80;;;7.00;97.60;;;;;;4976955;28;20564;-57
2022/12/23 12:17:25;;;;;;;18.80;13.73;;;7.10;98.20;;;;;;4982391;28;20600;-57
2022/12/23 12:20:01;;;;;;;18.90;13.43;;;7.10;96.90;;;;;;4981241;28;20595;-56
2022/12/23 12:22:34;;;;;;;18.67;13.67;;;7.10;97.40;;;;;;4983069;28;20839;-55
2022/12/23 12:25:11;;;;;;;14.73;11.47;;;7.10;96.60;;;;;;4984901;28;20555;-57
2022/12/23 12:27:41;;;;;;;14.67;11.77;;;7.20;96.20;;;;;;4982901;28;20547;-56
2022/12/23 12:30:15;;;;;;;16.27;11.90;;;7.20;95.40;;;;;;4986412;28;20480;-56
2022/12/23 12:32:48;;;;;;;17.40;12.40;;;7.20;94.50;;;;;;4983027;28;20476;-57
2022/12/23 12:35:21;;;;;;;62.40;42.97;;;7.30;94.30;;;;;;4986783;28;20514;-57
2022/12/23 12:37:52;;;;;;;15.87;12.90;;;7.30;93.90;;;;;;4983537;28;20457;-56
2022/12/23 12:40:29;;;;;;;14.93;11.07;;;7.40;92.80;;;;;;4984076;28;21002;-56
2022/12/23 12:43:01;;;;;;;14.10;11.40;;;7.30;92.30;;;;;;4987065;28;20596;-57
2022/12/23 12:45:34;;;;;;;13.60;10.30;;;7.30;91.70;;;;;;4983988;28;20850;-56
2022/12/23 12:48:31;;;;;;;10.60;9.33;;;7.30;92.00;;;;;;4986653;28;20548;-56
2022/12/23 12:51:04;;;;;;;13.07;10.60;;;7.40;91.70;;;;;;4979873;28;20572;-57
2022/12/23 12:53:33;;;;;;;20.13;13.10;;;7.50;90.70;;;;;;4978802;28;20491;-56
2022/12/23 12:56:04;;;;;;;13.97;10.83;;;7.50;89.10;;;;;;4978112;28;20568;-55
2022/12/23 12:58:31;;;;;;;16.07;12.30;;;7.60;88.40;;;;;;4983557;28;22307;-57
2022/12/23 13:01:09;;;;;;;26.60;18.60;;;7.60;88.30;;;;;;4987345;28;20575;-56
2022/12/23 13:04:00;;;;;;;23.10;18.77;;;7.50;88.10;;;;;;4984795;28;21184;-57
2022/12/23 13:06:36;;;;;;;14.57;11.30;;;7.50;88.00;;;;;;4986367;28;20481;-56
2022/12/23 13:09:09;;;;;;;15.93;13.20;;;7.40;88.30;;;;;;4992130;28;20559;-56
2022/12/23 13:11:43;;;;;;;19.10;13.70;;;7.40;86.30;;;;;;4978539;28;20516;-57
2022/12/23 13:14:20;;;;;;;19.17;14.90;;;7.40;88.00;;;;;;4990927;28;20561;-56
2022/12/23 13:16:53;;;;;;;14.50;11.60;;;7.40;88.10;;;;;;4992417;28;21052;-57
2022/12/23 13:19:28;;;;;;;33.73;23.33;;;7.20;88.90;;;;;;4992026;28;20484;-57
2022/12/23 13:22:02;;;;;;;19.77;14.33;;;7.20;89.30;;;;;;4992742;28;20885;-57
2022/12/23 13:24:35;;;;;;;19.23;13.33;;;7.30;89.00;;;;;;4984480;28;20563;-57
2022/12/23 13:27:10;;;;;;;13.67;11.53;;;7.20;89.40;;;;;;4982737;28;20900;-56